sensor_id;sensor_type;location;lat;lon;timestamp;pressure;altitude;pressure_sealevel;temperature;humidity
70248;BME280;57641;51.416;5.506;2022-12-20T00:01:26;101516.16;;;15.06;54.51
70248;BME280;57641;51.416;5.506;2022-12-20T00:03:53;101526.03;;;15.13;54.52
70248;BME280;57641;51.416;5.506;2022-12-20T00:06:19;101516.31;;;15.20;54.14
70248;BME280;57641;51.416;5.506;2022-12-20T00:08:46;101514.97;;;15.08;54.10
70248;BME280;57641;51.416;5.506;2022-12-20T00:11:13;101523.84;;;15.09;54.83
70248;BME280;57641;51.416;5.506;2022-12-20T00:13:38;101515.94;;;15.07;54.26
70248;BME280;57641;51.416;5.506;2022-12-20T00:16:12;101521.81;;;15.03;54.56
70248;BME280;57641;51.416;5.506;2022-12-20T00:18:39;101525.03;;;15.06;54.37
70248;BME280;57641;51.416;5.506;2022-12-20T00:21:07;101512.44;;;14.91;54.67
70248;BME280;57641;51.416;5.506;2022-12-20T00:23:33;101506.41;;;15.21;54.22
70248;BME280;57641;51.416;5.506;2022-12-20T00:26:10;101503.22;;;15.09;54.27
70248;BME280;57641;51.416;5.506;2022-12-20T00:28:37;101494.81;;;15.29;53.89
70248;BME280;57641;51.416;5.506;2022-12-20T00:31:04;101494.50;;;15.32;53.80
70248;BME280;57641;51.416;5.506;2022-12-20T00:33:31;101494.34;;;15.17;54.36
70248;BME280;57641;51.416;5.506;2022-12-20T00:35:57;101503.06;;;15.27;53.88
70248;BME280;57641;51.416;5.506;2022-12-20T00:38:24;101495.00;;;15.35;53.77
70248;BME280;57641;51.416;5.506;2022-12-20T00:41:00;101491.81;;;15.32;53.86
70248;BME280;57641;51.416;5.506;2022-12-20T00:43:27;101491.47;;;15.43;53.11
70248;BME280;57641;51.416;5.506;2022-12-20T00:45:53;101482.75;;;15.33;53.69
70248;BME280;57641;51.416;5.506;2022-12-20T00:48:19;101469.97;;;15.35;53.90
70248;BME280;57641;51.416;5.506;2022-12-20T00:50:44;101473.50;;;15.43;53.98
70248;BME280;57641;51.416;5.506;2022-12-20T00:53:10;101486.09;;;15.35;54.02
70248;BME280;57641;51.416;5.506;2022-12-20T00:55:44;101490.78;;;15.25;54.19
70248;BME280;57641;51.416;5.506;2022-12-20T00:58:09;101488.13;;;15.33;53.92
70248;BME280;57641;51.416;5.506;2022-12-20T01:00:36;101482.88;;;15.39;53.93
70248;BME280;57641;51.416;5.506;2022-12-20T01:03:02;101469.63;;;15.46;53.65
70248;BME280;57641;51.416;5.506;2022-12-20T01:05:27;101477.69;;;15.46;53.77
70248;BME280;57641;51.416;5.506;2022-12-20T01:07:53;101482.06;;;15.47;53.97
70248;BME280;57641;51.416;5.506;2022-12-20T01:10:18;101488.28;;;15.47;54.38
70248;BME280;57641;51.416;5.506;2022-12-20T01:12:44;101494.16;;;15.27;55.45
70248;BME280;57641;51.416;5.506;2022-12-20T01:15:10;101502.03;;;15.20;56.46
70248;BME280;57641;51.416;5.506;2022-12-20T01:17:36;101505.75;;;15.11;56.60
70248;BME280;57641;51.416;5.506;2022-12-20T01:20:02;101510.59;;;15.15;56.79
70248;BME280;57641;51.416;5.506;2022-12-20T01:22:27;101500.53;;;15.26;57.14
70248;BME280;57641;51.416;5.506;2022-12-20T01:24:53;101488.63;;;15.12;58.70
70248;BME280;57641;51.416;5.506;2022-12-20T01:27:18;101490.78;;;15.25;58.78
70248;BME280;57641;51.416;5.506;2022-12-20T01:29:43;101508.22;;;14.88;60.78
70248;BME280;57641;51.416;5.506;2022-12-20T01:32:09;101494.44;;;14.91;61.32
70248;BME280;57641;51.416;5.506;2022-12-20T01:34:34;101500.16;;;14.80;61.70
70248;BME280;57641;51.416;5.506;2022-12-20T01:37:00;101504.16;;;14.68;62.40
70248;BME280;57641;51.416;5.506;2022-12-20T01:39:25;101501.81;;;14.73;62.37
70248;BME280;57641;51.416;5.506;2022-12-20T01:41:51;101489.84;;;14.59;63.16
70248;BME280;57641;51.416;5.506;2022-12-20T01:46:43;101484.41;;;14.85;63.19
70248;BME280;57641;51.416;5.506;2022-12-20T01:49:12;101476.81;;;14.72;63.51
70248;BME280;57641;51.416;5.506;2022-12-20T01:51:43;101476.16;;;14.87;63.30
70248;BME280;57641;51.416;5.506;2022-12-20T01:54:13;101459.03;;;14.88;63.27
70248;BME280;57641;51.416;5.506;2022-12-20T01:56:40;101453.34;;;14.99;63.33
70248;BME280;57641;51.416;5.506;2022-12-20T01:59:09;101445.28;;;15.07;62.79
70248;BME280;57641;51.416;5.506;2022-12-20T02:01:35;101449.84;;;15.06;62.50
70248;BME280;57641;51.416;5.506;2022-12-20T02:04:01;101444.63;;;15.05;62.65
70248;BME280;57641;51.416;5.506;2022-12-20T02:06:28;101444.13;;;15.09;62.64
70248;BME280;57641;51.416;5.506;2022-12-20T02:08:56;101449.84;;;15.06;62.63
70248;BME280;57641;51.416;5.506;2022-12-20T02:11:58;101456.03;;;15.07;62.95
70248;BME280;57641;51.416;5.506;2022-12-20T02:14:43;101442.25;;;15.02;62.91
70248;BME280;57641;51.416;5.506;2022-12-20T02:28:18;101431.03;;;15.06;62.13
70248;BME280;57641;51.416;5.506;2022-12-20T02:30:48;101423.00;;;15.06;61.95
70248;BME280;57641;51.416;5.506;2022-12-20T02:33:15;101414.25;;;15.04;61.83
70248;BME280;57641;51.416;5.506;2022-12-20T02:35:43;101412.56;;;15.03;61.93
70248;BME280;57641;51.416;5.506;2022-12-20T02:38:34;101403.00;;;14.93;61.95
70248;BME280;57641;51.416;5.506;2022-12-20T02:41:06;101404.00;;;14.84;62.19
70248;BME280;57641;51.416;5.506;2022-12-20T02:43:35;101400.66;;;14.90;61.59
70248;BME280;57641;51.416;5.506;2022-12-20T02:46:22;101400.47;;;14.91;61.37
70248;BME280;57641;51.416;5.506;2022-12-20T02:48:50;101406.00;;;14.82;61.23
70248;BME280;57641;51.416;5.506;2022-12-20T02:51:17;101394.09;;;14.92;60.71
70248;BME280;57641;51.416;5.506;2022-12-20T02:53:44;101397.31;;;14.96;60.65
70248;BME280;57641;51.416;5.506;2022-12-20T02:59:02;101393.25;;;15.08;60.19
70248;BME280;57641;51.416;5.506;2022-12-20T03:01:45;101389.25;;;15.04;59.97
70248;BME280;57641;51.416;5.506;2022-12-20T03:04:12;101396.63;;;15.02;60.09
70248;BME280;57641;51.416;5.506;2022-12-20T03:06:39;101401.19;;;15.01;60.06
70248;BME280;57641;51.416;5.506;2022-12-20T03:09:23;101403.16;;;15.07;59.63
70248;BME280;57641;51.416;5.506;2022-12-20T03:11:48;101399.47;;;14.92;59.62
70248;BME280;57641;51.416;5.506;2022-12-20T03:14:14;101397.66;;;14.85;59.80
70248;BME280;57641;51.416;5.506;2022-12-20T03:16:39;101396.28;;;14.89;59.74
70248;BME280;57641;51.416;5.506;2022-12-20T03:19:05;101403.34;;;14.98;59.22
70248;BME280;57641;51.416;5.506;2022-12-20T03:21:30;101391.59;;;14.74;59.91
70248;BME280;57641;51.416;5.506;2022-12-20T03:23:55;101391.78;;;14.89;59.44
70248;BME280;57641;51.416;5.506;2022-12-20T03:26:21;101382.88;;;15.05;59.45
70248;BME280;57641;51.416;5.506;2022-12-20T03:28:46;101384.56;;;15.06;59.02
70248;BME280;57641;51.416;5.506;2022-12-20T03:31:12;101388.41;;;15.11;58.91
70248;BME280;57641;51.416;5.506;2022-12-20T03:33:37;101371.13;;;14.90;59.58
70248;BME280;57641;51.416;5.506;2022-12-20T03:36:03;101384.88;;;14.87;59.09
70248;BME280;57641;51.416;5.506;2022-12-20T03:38:29;101392.78;;;15.04;59.50
70248;BME280;57641;51.416;5.506;2022-12-20T03:40:54;101381.84;;;14.82;59.75
70248;BME280;57641;51.416;5.506;2022-12-20T03:43:19;101386.25;;;14.91;59.67
70248;BME280;57641;51.416;5.506;2022-12-20T03:45:45;101403.53;;;14.96;59.52
70248;BME280;57641;51.416;5.506;2022-12-20T03:48:10;101399.16;;;14.79;60.38
70248;BME280;57641;51.416;5.506;2022-12-20T03:50:36;101390.09;;;14.88;59.75
70248;BME280;57641;51.416;5.506;2022-12-20T03:53:01;101391.94;;;15.04;58.74
70248;BME280;57641;51.416;5.506;2022-12-20T03:55:27;101389.06;;;14.97;59.57
70248;BME280;57641;51.416;5.506;2022-12-20T03:57:52;101398.81;;;15.06;59.59
70248;BME280;57641;51.416;5.506;2022-12-20T04:00:18;101393.25;;;15.08;58.63
70248;BME280;57641;51.416;5.506;2022-12-20T04:02:45;101389.38;;;15.18;58.47
70248;BME280;57641;51.416;5.506;2022-12-20T04:05:10;101387.56;;;15.11;58.74
70248;BME280;57641;51.416;5.506;2022-12-20T04:07:36;101385.03;;;15.09;58.89
70248;BME280;57641;51.416;5.506;2022-12-20T04:10:02;101379.16;;;15.14;58.75
70248;BME280;57641;51.416;5.506;2022-12-20T04:12:28;101377.81;;;15.18;59.10
70248;BME280;57641;51.416;5.506;2022-12-20T04:14:53;101380.66;;;15.25;58.61
70248;BME280;57641;51.416;5.506;2022-12-20T04:17:19;101376.94;;;15.34;58.38
70248;BME280;57641;51.416;5.506;2022-12-20T04:19:44;101384.50;;;15.30;58.31
70248;BME280;57641;51.416;5.506;2022-12-20T04:22:09;101372.75;;;15.31;58.63
70248;BME280;57641;51.416;5.506;2022-12-20T04:24:35;101373.59;;;15.32;58.37
70248;BME280;57641;51.416;5.506;2022-12-20T04:27:00;101372.78;;;14.99;59.41
70248;BME280;57641;51.416;5.506;2022-12-20T04:29:26;101374.28;;;15.17;58.79
70248;BME280;57641;51.416;5.506;2022-12-20T04:31:51;101374.94;;;15.28;58.53
70248;BME280;57641;51.416;5.506;2022-12-20T04:34:17;101370.56;;;15.35;58.59
70248;BME280;57641;51.416;5.506;2022-12-20T04:36:42;101371.75;;;15.32;58.72
70248;BME280;57641;51.416;5.506;2022-12-20T04:39:08;101366.03;;;15.35;58.75
70248;BME280;57641;51.416;5.506;2022-12-20T04:41:33;101363.22;;;15.04;59.37
70248;BME280;57641;51.416;5.506;2022-12-20T04:43:59;101364.84;;;15.38;58.99
70248;BME280;57641;51.416;5.506;2022-12-20T04:46:25;101365.22;;;15.18;59.10
70248;BME280;57641;51.416;5.506;2022-12-20T04:48:51;101372.41;;;15.34;58.95
70248;BME280;57641;51.416;5.506;2022-12-20T04:51:17;101356.81;;;15.13;59.22
70248;BME280;57641;51.416;5.506;2022-12-20T04:53:42;101369.25;;;15.23;59.62
70248;BME280;57641;51.416;5.506;2022-12-20T04:56:17;101361.38;;;15.05;60.25
70248;BME280;57641;51.416;5.506;2022-12-20T04:58:48;101359.81;;;15.35;59.27
70248;BME280;57641;51.416;5.506;2022-12-20T05:01:18;101350.25;;;15.24;59.76
70248;BME280;57641;51.416;5.506;2022-12-20T05:03:44;101346.03;;;15.38;59.51
70248;BME280;57641;51.416;5.506;2022-12-20T05:06:10;101348.06;;;15.36;59.82
70248;BME280;57641;51.416;5.506;2022-12-20T05:08:36;101343.19;;;15.31;59.50
70248;BME280;57641;51.416;5.506;2022-12-20T05:11:03;101346.38;;;15.35;59.70
70248;BME280;57641;51.416;5.506;2022-12-20T05:13:29;101345.41;;;15.28;59.87
70248;BME280;57641;51.416;5.506;2022-12-20T05:15:55;101345.88;;;15.31;59.92
70248;BME280;57641;51.416;5.506;2022-12-20T05:18:22;101335.56;;;15.51;59.55
70248;BME280;57641;51.416;5.506;2022-12-20T05:20:48;101339.16;;;15.43;60.31
70248;BME280;57641;51.416;5.506;2022-12-20T05:23:33;101345.84;;;15.39;59.78
70248;BME280;57641;51.416;5.506;2022-12-20T05:26:17;101326.88;;;15.41;59.68
70248;BME280;57641;51.416;5.506;2022-12-20T05:28:46;101318.50;;;15.44;59.55
70248;BME280;57641;51.416;5.506;2022-12-20T05:31:12;101323.84;;;15.52;59.38
70248;BME280;57641;51.416;5.506;2022-12-20T05:33:37;101320.81;;;15.55;59.39
70248;BME280;57641;51.416;5.506;2022-12-20T05:36:03;101321.28;;;15.50;59.42
70248;BME280;57641;51.416;5.506;2022-12-20T05:38:28;101324.34;;;15.55;59.01
70248;BME280;57641;51.416;5.506;2022-12-20T05:40:54;101319.09;;;15.62;58.80
70248;BME280;57641;51.416;5.506;2022-12-20T05:43:19;101312.88;;;15.70;59.01
70248;BME280;57641;51.416;5.506;2022-12-20T05:45:46;101303.56;;;15.80;58.27
70248;BME280;57641;51.416;5.506;2022-12-20T05:48:13;101313.50;;;15.72;58.35
70248;BME280;57641;51.416;5.506;2022-12-20T05:50:39;101312.03;;;15.69;57.88
70248;BME280;57641;51.416;5.506;2022-12-20T05:53:07;101316.28;;;15.47;58.68
70248;BME280;57641;51.416;5.506;2022-12-20T05:55:33;101314.72;;;15.61;58.51
70248;BME280;57641;51.416;5.506;2022-12-20T05:57:58;101310.03;;;15.63;58.17
70248;BME280;57641;51.416;5.506;2022-12-20T06:00:23;101296.38;;;15.73;58.00
70248;BME280;57641;51.416;5.506;2022-12-20T06:02:49;101289.09;;;15.81;57.28
70248;BME280;57641;51.416;5.506;2022-12-20T06:05:14;101298.13;;;15.88;57.54
70248;BME280;57641;51.416;5.506;2022-12-20T06:07:40;101286.22;;;15.83;57.38
70248;BME280;57641;51.416;5.506;2022-12-20T06:10:06;101280.69;;;15.84;56.96
70248;BME280;57641;51.416;5.506;2022-12-20T06:12:32;101266.84;;;15.95;56.70
70248;BME280;57641;51.416;5.506;2022-12-20T06:14:59;101262.78;;;15.99;56.47
70248;BME280;57641;51.416;5.506;2022-12-20T06:17:24;101257.09;;;15.94;56.25
70248;BME280;57641;51.416;5.506;2022-12-20T06:19:49;101253.19;;;15.97;56.07
70248;BME280;57641;51.416;5.506;2022-12-20T06:22:15;101259.94;;;15.93;56.08
70248;BME280;57641;51.416;5.506;2022-12-20T06:24:40;101260.03;;;15.85;55.95
70248;BME280;57641;51.416;5.506;2022-12-20T06:27:06;101262.41;;;15.80;55.95
70248;BME280;57641;51.416;5.506;2022-12-20T06:29:31;101261.16;;;15.90;55.85
70248;BME280;57641;51.416;5.506;2022-12-20T06:31:57;101273.25;;;15.63;56.30
70248;BME280;57641;51.416;5.506;2022-12-20T06:34:23;101261.66;;;15.63;56.27
70248;BME280;57641;51.416;5.506;2022-12-20T06:36:48;101265.50;;;15.69;55.97
70248;BME280;57641;51.416;5.506;2022-12-20T06:39:14;101271.94;;;15.59;56.48
70248;BME280;57641;51.416;5.506;2022-12-20T06:41:40;101269.03;;;15.61;55.95
70248;BME280;57641;51.416;5.506;2022-12-20T06:44:06;101257.56;;;15.75;55.97
70248;BME280;57641;51.416;5.506;2022-12-20T06:46:31;101256.53;;;15.76;55.72
70248;BME280;57641;51.416;5.506;2022-12-20T06:48:57;101247.28;;;15.79;55.43
70248;BME280;57641;51.416;5.506;2022-12-20T06:51:23;101249.97;;;15.79;55.17
70248;BME280;57641;51.416;5.506;2022-12-20T06:53:48;101255.81;;;15.82;55.15
70248;BME280;57641;51.416;5.506;2022-12-20T06:56:14;101263.25;;;15.80;55.10
70248;BME280;57641;51.416;5.506;2022-12-20T06:58:40;101256.09;;;15.65;55.04
70248;BME280;57641;51.416;5.506;2022-12-20T07:01:05;101271.88;;;15.68;54.96
70248;BME280;57641;51.416;5.506;2022-12-20T07:03:31;101268.09;;;15.85;55.05
70248;BME280;57641;51.416;5.506;2022-12-20T07:05:56;101269.09;;;15.84;54.83
70248;BME280;57641;51.416;5.506;2022-12-20T07:08:22;101273.56;;;15.60;55.33
70248;BME280;57641;51.416;5.506;2022-12-20T07:10:48;101264.59;;;15.76;55.07
70248;BME280;57641;51.416;5.506;2022-12-20T07:13:14;101252.78;;;15.85;54.66
70248;BME280;57641;51.416;5.506;2022-12-20T07:15:40;101264.19;;;15.87;54.29
70248;BME280;57641;51.416;5.506;2022-12-20T07:18:05;101272.38;;;15.94;53.96
70248;BME280;57641;51.416;5.506;2022-12-20T07:20:31;101268.25;;;15.83;54.41
70248;BME280;57641;51.416;5.506;2022-12-20T07:22:57;101269.13;;;15.76;54.41
70248;BME280;57641;51.416;5.506;2022-12-20T07:25:23;101269.75;;;15.86;54.29
70248;BME280;57641;51.416;5.506;2022-12-20T07:27:50;101268.47;;;15.74;54.20
70248;BME280;57641;51.416;5.506;2022-12-20T07:30:17;101261.78;;;15.70;54.45
70248;BME280;57641;51.416;5.506;2022-12-20T07:32:43;101269.03;;;15.61;54.27
70248;BME280;57641;51.416;5.506;2022-12-20T07:35:10;101270.06;;;15.60;54.55
70248;BME280;57641;51.416;5.506;2022-12-20T07:37:36;101278.63;;;15.63;54.06
70248;BME280;57641;51.416;5.506;2022-12-20T07:40:03;101268.03;;;15.62;54.85
70248;BME280;57641;51.416;5.506;2022-12-20T07:42:28;101284.69;;;15.57;54.96
70248;BME280;57641;51.416;5.506;2022-12-20T07:44:54;101279.25;;;15.66;54.84
70248;BME280;57641;51.416;5.506;2022-12-20T07:47:19;101277.09;;;15.61;54.85
70248;BME280;57641;51.416;5.506;2022-12-20T07:49:45;101286.91;;;15.54;54.85
70248;BME280;57641;51.416;5.506;2022-12-20T07:52:12;101281.69;;;15.44;55.00
70248;BME280;57641;51.416;5.506;2022-12-20T07:54:55;101279.66;;;15.46;55.23
70248;BME280;57641;51.416;5.506;2022-12-20T07:57:25;101286.34;;;15.50;55.04
70248;BME280;57641;51.416;5.506;2022-12-20T07:59:56;101285.38;;;15.51;54.78
70248;BME280;57641;51.416;5.506;2022-12-20T08:02:29;101287.69;;;15.62;54.57
70248;BME280;57641;51.416;5.506;2022-12-20T08:04:57;101296.81;;;15.53;55.52
70248;BME280;57641;51.416;5.506;2022-12-20T08:07:23;101289.59;;;15.54;55.38
70248;BME280;57641;51.416;5.506;2022-12-20T08:09:49;101296.63;;;15.55;55.94
70248;BME280;57641;51.416;5.506;2022-12-20T08:12:16;101292.00;;;15.33;56.39
70248;BME280;57641;51.416;5.506;2022-12-20T08:14:46;101285.63;;;15.26;56.78
70248;BME280;57641;51.416;5.506;2022-12-20T08:17:11;101285.09;;;15.38;56.82
70248;BME280;57641;51.416;5.506;2022-12-20T08:19:37;101289.31;;;15.33;57.76
70248;BME280;57641;51.416;5.506;2022-12-20T08:22:03;101288.00;;;15.20;58.77
70248;BME280;57641;51.416;5.506;2022-12-20T08:24:29;101284.81;;;15.17;58.32
70248;BME280;57641;51.416;5.506;2022-12-20T08:26:55;101293.06;;;15.07;59.15
70248;BME280;57641;51.416;5.506;2022-12-20T08:29:20;101284.81;;;15.17;58.70
70248;BME280;57641;51.416;5.506;2022-12-20T08:31:46;101285.97;;;15.23;58.63
70248;BME280;57641;51.416;5.506;2022-12-20T08:34:11;101290.16;;;15.25;58.97
70248;BME280;57641;51.416;5.506;2022-12-20T08:36:37;101283.00;;;15.09;59.44
70248;BME280;57641;51.416;5.506;2022-12-20T08:39:04;101281.28;;;15.16;59.98
70248;BME280;57641;51.416;5.506;2022-12-20T08:41:30;101279.50;;;14.93;60.77
70248;BME280;57641;51.416;5.506;2022-12-20T08:43:56;101274.09;;;15.17;60.47
70248;BME280;57641;51.416;5.506;2022-12-20T08:46:21;101282.38;;;14.83;62.10
70248;BME280;57641;51.416;5.506;2022-12-20T08:48:47;101271.88;;;15.12;61.71
70248;BME280;57641;51.416;5.506;2022-12-20T08:51:12;101271.94;;;15.04;62.16
70248;BME280;57641;51.416;5.506;2022-12-20T08:53:38;101273.47;;;14.91;62.49
70248;BME280;57641;51.416;5.506;2022-12-20T08:56:12;101272.94;;;15.03;62.87
70248;BME280;57641;51.416;5.506;2022-12-20T08:58:39;101264.88;;;15.03;62.82
70248;BME280;57641;51.416;5.506;2022-12-20T09:01:09;101257.66;;;15.04;62.84
70248;BME280;57641;51.416;5.506;2022-12-20T09:03:36;101262.88;;;15.05;63.27
70248;BME280;57641;51.416;5.506;2022-12-20T09:06:07;101263.88;;;15.04;62.54
70248;BME280;57641;51.416;5.506;2022-12-20T09:08:34;101263.69;;;15.06;62.90
70248;BME280;57641;51.416;5.506;2022-12-20T09:11:06;101255.00;;;14.96;62.86
70248;BME280;57641;51.416;5.506;2022-12-20T09:13:32;101247.03;;;15.18;63.01
70248;BME280;57641;51.416;5.506;2022-12-20T09:16:03;101238.75;;;15.28;62.54
70248;BME280;57641;51.416;5.506;2022-12-20T09:18:29;101258.13;;;15.07;62.18
70248;BME280;57641;51.416;5.506;2022-12-20T09:20:58;101253.75;;;15.14;62.38
70248;BME280;57641;51.416;5.506;2022-12-20T09:23:25;101263.19;;;15.02;62.08
70248;BME280;57641;51.416;5.506;2022-12-20T09:25:51;101253.91;;;15.21;62.13
70248;BME280;57641;51.416;5.506;2022-12-20T09:28:16;101258.72;;;15.34;61.60
70248;BME280;57641;51.416;5.506;2022-12-20T09:30:41;101257.38;;;15.38;60.95
70248;BME280;57641;51.416;5.506;2022-12-20T09:33:07;101250.97;;;15.39;61.17
70248;BME280;57641;51.416;5.506;2022-12-20T09:35:32;101249.25;;;15.46;61.14
70248;BME280;57641;51.416;5.506;2022-12-20T09:37:58;101248.44;;;15.06;61.36
70248;BME280;57641;51.416;5.506;2022-12-20T09:40:26;101248.38;;;15.23;61.21
70248;BME280;57641;51.416;5.506;2022-12-20T09:42:53;101247.31;;;15.32;61.37
70248;BME280;57641;51.416;5.506;2022-12-20T09:45:27;101258.56;;;15.35;60.79
70248;BME280;57641;51.416;5.506;2022-12-20T09:47:56;101257.97;;;15.09;61.27
70248;BME280;57641;51.416;5.506;2022-12-20T09:50:45;101262.19;;;15.11;61.03
70248;BME280;57641;51.416;5.506;2022-12-20T09:56:15;101250.75;;;15.09;60.84
70248;BME280;57641;51.416;5.506;2022-12-20T10:01:25;101260.53;;;15.41;59.76
70248;BME280;57641;51.416;5.506;2022-12-20T10:03:53;101249.56;;;15.20;60.79
70248;BME280;57641;51.416;5.506;2022-12-20T10:21:03;101245.56;;;15.47;60.45
70248;BME280;57641;51.416;5.506;2022-12-20T10:26:12;101237.91;;;15.36;59.69
70248;BME280;57641;51.416;5.506;2022-12-20T10:28:39;101241.59;;;14.96;61.55
70248;BME280;57641;51.416;5.506;2022-12-20T10:31:12;101248.13;;;14.93;63.29
70248;BME280;57641;51.416;5.506;2022-12-20T10:33:39;101247.00;;;15.27;63.46
70248;BME280;57641;51.416;5.506;2022-12-20T10:36:20;101237.69;;;14.98;63.91
70248;BME280;57641;51.416;5.506;2022-12-20T10:38:51;101240.50;;;15.13;64.29
70248;BME280;57641;51.416;5.506;2022-12-20T10:41:19;101239.34;;;15.07;64.23
70248;BME280;57641;51.416;5.506;2022-12-20T10:43:52;101228.91;;;15.12;63.99
70248;BME280;57641;51.416;5.506;2022-12-20T10:46:21;101229.81;;;14.97;64.48
70248;BME280;57641;51.416;5.506;2022-12-20T10:48:48;101231.09;;;15.17;64.04
70248;BME280;57641;51.416;5.506;2022-12-20T10:51:20;101233.72;;;15.33;64.07
70248;BME280;57641;51.416;5.506;2022-12-20T10:58:55;101221.63;;;15.29;64.88
70248;BME280;57641;51.416;5.506;2022-12-20T11:01:24;101227.69;;;15.23;64.86
70248;BME280;57641;51.416;5.506;2022-12-20T11:04:20;101223.69;;;15.19;65.48
70248;BME280;57641;51.416;5.506;2022-12-20T11:06:50;101229.56;;;15.23;65.58
70248;BME280;57641;51.416;5.506;2022-12-20T11:09:31;101221.25;;;15.01;66.61
70248;BME280;57641;51.416;5.506;2022-12-20T11:12:11;101223.22;;;15.07;66.14
70248;BME280;57641;51.416;5.506;2022-12-20T11:14:37;101208.72;;;15.25;66.08
70248;BME280;57641;51.416;5.506;2022-12-20T11:17:18;101213.88;;;15.34;65.89
70248;BME280;57641;51.416;5.506;2022-12-20T11:19:57;101203.03;;;15.28;65.92
70248;BME280;57641;51.416;5.506;2022-12-20T11:30:22;101205.00;;;14.95;67.50
70248;BME280;57641;51.416;5.506;2022-12-20T11:33:07;101209.47;;;15.10;67.13
70248;BME280;57641;51.416;5.506;2022-12-20T11:35:46;101201.31;;;14.96;67.68
70248;BME280;57641;51.416;5.506;2022-12-20T11:41:25;101206.63;;;15.04;67.18
70248;BME280;57641;51.416;5.506;2022-12-20T11:50:15;101192.63;;;14.86;67.02
70248;BME280;57641;51.416;5.506;2022-12-20T11:52:59;101191.03;;;14.99;67.51
70248;BME280;57641;51.416;5.506;2022-12-20T11:55:28;101194.56;;;15.00;67.51
70248;BME280;57641;51.416;5.506;2022-12-20T12:00:36;101186.66;;;15.06;67.85
70248;BME280;57641;51.416;5.506;2022-12-20T12:03:15;101186.50;;;15.00;67.14
70248;BME280;57641;51.416;5.506;2022-12-20T12:08:42;101183.09;;;15.14;67.28
70248;BME280;57641;51.416;5.506;2022-12-20T12:11:19;101179.94;;;15.10;67.67
70248;BME280;57641;51.416;5.506;2022-12-20T12:13:46;101180.88;;;15.17;67.40
70248;BME280;57641;51.416;5.506;2022-12-20T12:18:43;101183.84;;;15.00;68.37
70248;BME280;57641;51.416;5.506;2022-12-20T12:21:24;101172.41;;;15.06;67.64
70248;BME280;57641;51.416;5.506;2022-12-20T12:26:37;101175.78;;;15.00;68.06
70248;BME280;57641;51.416;5.506;2022-12-20T12:45:48;101170.75;;;14.42;70.24
70248;BME280;57641;51.416;5.506;2022-12-20T12:48:18;101175.88;;;14.67;69.75
70248;BME280;57641;51.416;5.506;2022-12-20T12:50:47;101182.25;;;14.66;69.82
70248;BME280;57641;51.416;5.506;2022-12-20T12:53:21;101171.03;;;14.55;69.82
70248;BME280;57641;51.416;5.506;2022-12-20T12:55:51;101168.09;;;14.80;69.49
70248;BME280;57641;51.416;5.506;2022-12-20T13:01:01;101171.63;;;14.89;69.08
70248;BME280;57641;51.416;5.506;2022-12-20T13:06:41;101155.25;;;14.68;69.42
70248;BME280;57641;51.416;5.506;2022-12-20T13:09:17;101164.16;;;14.60;69.19
70248;BME280;57641;51.416;5.506;2022-12-20T13:11:47;101158.50;;;14.47;70.20
70248;BME280;57641;51.416;5.506;2022-12-20T13:19:52;101153.13;;;14.39;70.62
70248;BME280;57641;51.416;5.506;2022-12-20T13:22:21;101151.25;;;14.56;70.55
70248;BME280;57641;51.416;5.506;2022-12-20T13:24:56;101154.41;;;14.67;69.81
70248;BME280;57641;51.416;5.506;2022-12-20T13:40:49;101159.09;;;14.65;69.89
70248;BME280;57641;51.416;5.506;2022-12-20T13:51:20;101162.00;;;14.31;70.81
70248;BME280;57641;51.416;5.506;2022-12-20T13:54:05;101157.50;;;14.48;70.49
70248;BME280;57641;51.416;5.506;2022-12-20T13:56:37;101160.81;;;14.50;70.62
70248;BME280;57641;51.416;5.506;2022-12-20T13:59:14;101166.22;;;14.42;70.31
70248;BME280;57641;51.416;5.506;2022-12-20T14:01:53;101151.25;;;14.56;69.61
70248;BME280;57641;51.416;5.506;2022-12-20T14:04:20;101155.44;;;14.50;69.24
70248;BME280;57641;51.416;5.506;2022-12-20T14:06:54;101155.13;;;14.29;69.94
70248;BME280;57641;51.416;5.506;2022-12-20T14:09:36;101157.81;;;14.29;70.40
70248;BME280;57641;51.416;5.506;2022-12-20T14:12:16;101153.13;;;14.39;70.19
70248;BME280;57641;51.416;5.506;2022-12-20T14:14:47;101148.28;;;14.26;69.63
70248;BME280;57641;51.416;5.506;2022-12-20T14:17:23;101155.47;;;14.42;70.32
70248;BME280;57641;51.416;5.506;2022-12-20T14:20:13;101147.59;;;14.41;70.26
70248;BME280;57641;51.416;5.506;2022-12-20T14:23:04;101150.59;;;14.29;70.54
70248;BME280;57641;51.416;5.506;2022-12-20T14:25:34;101155.31;;;14.27;70.65
70248;BME280;57641;51.416;5.506;2022-12-20T14:28:02;101156.00;;;14.38;70.40
70248;BME280;57641;51.416;5.506;2022-12-20T14:30:34;101148.63;;;14.15;70.19
70248;BME280;57641;51.416;5.506;2022-12-20T14:33:01;101154.47;;;14.43;70.11
70248;BME280;57641;51.416;5.506;2022-12-20T14:35:27;101154.13;;;14.46;70.07
70248;BME280;57641;51.416;5.506;2022-12-20T14:37:58;101147.94;;;14.38;69.45
70248;BME280;57641;51.416;5.506;2022-12-20T14:40:25;101147.25;;;14.44;69.86
70248;BME280;57641;51.416;5.506;2022-12-20T14:42:51;101146.28;;;14.36;69.87
70248;BME280;57641;51.416;5.506;2022-12-20T14:47:49;101147.41;;;14.34;69.68
70248;BME280;57641;51.416;5.506;2022-12-20T14:50:18;101152.13;;;14.40;69.82
70248;BME280;57641;51.416;5.506;2022-12-20T14:52:44;101153.78;;;14.49;69.62
70248;BME280;57641;51.416;5.506;2022-12-20T14:55:18;101141.22;;;14.42;69.93
70248;BME280;57641;51.416;5.506;2022-12-20T14:57:50;101144.41;;;14.53;69.78
70248;BME280;57641;51.416;5.506;2022-12-20T15:10:47;101116.56;;;14.46;68.90
70248;BME280;57641;51.416;5.506;2022-12-20T15:13:15;101121.25;;;14.36;69.65